Time;durP1;ratioP1;P1;durP2;ratioP2;P2;SDS_P1;SDS_P2;PMS_P1;PMS_P2;Temp;Humidity;BMP_temperature;BMP_pressure;BME280_temperature;BME280_humidity;BME280_pressure;Samples;Min_cycle;Max_cycle;Signal;HPM_P1;HPM_P2
2020/12/12 00:02:09;;;;;;;131.82;73.50;;;;;;;;;;5037453;28;21016;-80
2020/12/12 00:04:35;;;;;;;130.17;71.40;;;;;;;;;;5059533;28;20381;-81
2020/12/12 00:07:01;;;;;;;134.30;73.32;;;;;;;;;;5056416;28;20434;-81
2020/12/12 00:09:27;;;;;;;135.35;75.05;;;;;;;;;;5040475;28;20396;-81
2020/12/12 00:11:53;;;;;;;134.93;74.20;;;;;;;;;;5060761;28;20797;-81
2020/12/12 00:14:19;;;;;;;137.95;73.72;;;;;;;;;;5053876;28;20368;-81
2020/12/12 00:16:45;;;;;;;135.15;75.30;;;;;;;;;;5063168;28;20378;-81
2020/12/12 00:19:11;;;;;;;133.10;71.53;;;;;;;;;;5069766;28;20381;-80
2020/12/12 00:21:37;;;;;;;134.15;72.13;;;;;;;;;;5069689;28;20372;-80
2020/12/12 00:24:03;;;;;;;141.18;75.80;;;;;;;;;;5069615;28;20401;-81
2020/12/12 00:26:29;;;;;;;146.88;76.78;;;;;;;;;;5055703;28;20379;-80
2020/12/12 00:28:55;;;;;;;139.80;74.38;;;;;;;;;;5049480;28;20782;-81
2020/12/12 00:31:21;;;;;;;135.00;73.43;;;;;;;;;;5049068;28;21006;-80
2020/12/12 00:33:47;;;;;;;135.98;73.13;;;;;;;;;;5031632;28;20376;-80
2020/12/12 00:36:13;;;;;;;141.55;75.20;;;;;;;;;;5049513;28;20363;-80
2020/12/12 00:38:39;;;;;;;150.50;78.57;;;;;;;;;;5049622;28;20371;-80
2020/12/12 00:41:06;;;;;;;154.30;79.07;;;;;;;;;;5049030;28;20361;-80
2020/12/12 00:43:33;;;;;;;154.77;79.97;;;;;;;;;;5049099;28;20398;-80
2020/12/12 00:45:59;;;;;;;152.37;80.03;;;;;;;;;;5029653;28;20403;-80
2020/12/12 00:48:25;;;;;;;154.68;80.82;;;;;;;;;;5058965;28;20463;-80
2020/12/12 00:50:52;;;;;;;163.63;83.90;;;;;;;;;;5056824;28;20399;-80
2020/12/12 00:53:18;;;;;;;157.45;81.60;;;;;;;;;;5040758;28;20374;-80
2020/12/12 00:55:44;;;;;;;163.75;81.65;;;;;;;;;;5062181;28;20360;-80
2020/12/12 00:58:10;;;;;;;162.20;81.75;;;;;;;;;;5060470;28;20378;-80
2020/12/12 01:00:36;;;;;;;152.98;82.28;;;;;;;;;;5045331;28;20384;-81
2020/12/12 01:03:03;;;;;;;166.52;82.35;;;;;;;;;;5061323;28;20397;-80
2020/12/12 01:05:31;;;;;;;157.40;82.22;;;;;;;;;;5062635;28;20405;-80
2020/12/12 01:07:57;;;;;;;171.20;85.75;;;;;;;;;;5043215;28;20422;-81
2020/12/12 01:10:23;;;;;;;172.37;85.90;;;;;;;;;;5060896;28;20482;-80
2020/12/12 01:12:51;;;;;;;172.15;86.20;;;;;;;;;;5060127;28;20371;-80
2020/12/12 01:15:17;;;;;;;176.32;86.38;;;;;;;;;;5049962;28;20404;-80
2020/12/12 01:17:43;;;;;;;183.48;89.93;;;;;;;;;;5032420;28;20874;-81
2020/12/12 01:20:09;;;;;;;183.13;89.18;;;;;;;;;;5032380;28;20406;-81
2020/12/12 01:22:35;;;;;;;184.27;91.93;;;;;;;;;;5050549;28;20451;-79
2020/12/12 01:25:01;;;;;;;188.63;92.10;;;;;;;;;;5033091;28;20372;-80
2020/12/12 01:27:27;;;;;;;192.25;92.95;;;;;;;;;;5050689;28;20364;-80
2020/12/12 01:29:53;;;;;;;182.98;91.38;;;;;;;;;;5032611;28;20406;-79
2020/12/12 01:32:19;;;;;;;189.15;91.25;;;;;;;;;;5052243;28;20364;-80
2020/12/12 01:34:45;;;;;;;189.40;94.05;;;;;;;;;;5034478;28;20383;-80
2020/12/12 01:37:11;;;;;;;202.97;94.97;;;;;;;;;;5052052;28;20478;-79
2020/12/12 01:39:37;;;;;;;191.63;94.93;;;;;;;;;;5052188;28;20834;-79
2020/12/12 01:42:03;;;;;;;189.70;93.68;;;;;;;;;;5052055;28;20364;-79
2020/12/12 01:44:29;;;;;;;200.00;96.45;;;;;;;;;;5034473;28;20838;-80
2020/12/12 01:46:58;;;;;;;201.95;96.57;;;;;;;;;;5052173;28;20368;-79
2020/12/12 01:49:24;;;;;;;200.30;94.13;;;;;;;;;;5051840;28;20784;-79
2020/12/12 01:51:50;;;;;;;196.00;94.47;;;;;;;;;;5051751;28;20368;-80
2020/12/12 01:54:16;;;;;;;206.00;97.65;;;;;;;;;;5052155;28;20371;-79
2020/12/12 01:56:43;;;;;;;203.32;95.72;;;;;;;;;;5051626;28;20771;-79
2020/12/12 01:59:09;;;;;;;198.10;95.32;;;;;;;;;;5033876;28;20890;-79
2020/12/12 02:01:38;;;;;;;201.98;96.38;;;;;;;;;;5051953;28;20360;-79
2020/12/12 02:04:09;;;;;;;204.27;97.68;;;;;;;;;;5051653;28;20726;-79
2020/12/12 02:06:35;;;;;;;203.68;97.10;;;;;;;;;;5051849;28;20356;-79
2020/12/12 02:09:02;;;;;;;205.60;99.47;;;;;;;;;;5051397;28;20374;-80
2020/12/12 02:11:28;;;;;;;202.30;95.63;;;;;;;;;;5051487;28;20406;-80
2020/12/12 02:13:56;;;;;;;210.97;98.63;;;;;;;;;;5051364;28;20372;-79
2020/12/12 02:16:22;;;;;;;223.60;107.43;;;;;;;;;;5051481;28;20359;-79
2020/12/12 02:18:48;;;;;;;192.43;100.80;;;;;;;;;;5051611;28;20360;-80
2020/12/12 02:21:14;;;;;;;210.70;99.75;;;;;;;;;;5033925;28;20798;-79
2020/12/12 02:23:40;;;;;;;198.20;95.10;;;;;;;;;;5051493;28;20547;-80
2020/12/12 02:26:06;;;;;;;210.70;99.60;;;;;;;;;;5052053;28;20359;-80
2020/12/12 02:28:52;;;;;;;211.40;96.57;;;;;;;;;;5033744;28;20376;-80
2020/12/12 02:31:18;;;;;;;208.15;96.70;;;;;;;;;;5051001;28;20395;-79
2020/12/12 02:33:44;;;;;;;223.13;100.47;;;;;;;;;;5032838;28;20364;-79
2020/12/12 02:36:10;;;;;;;204.57;95.40;;;;;;;;;;5051296;28;20722;-79
2020/12/12 02:38:36;;;;;;;212.38;97.72;;;;;;;;;;5051187;28;20355;-79
2020/12/12 02:41:02;;;;;;;212.73;97.97;;;;;;;;;;5033064;28;20410;-79
2020/12/12 02:43:28;;;;;;;213.02;96.97;;;;;;;;;;5051206;28;20360;-79
2020/12/12 02:45:54;;;;;;;206.13;97.25;;;;;;;;;;5033174;28;20403;-79
2020/12/12 02:48:20;;;;;;;238.68;105.10;;;;;;;;;;5051006;28;20782;-79
2020/12/12 02:50:46;;;;;;;211.13;97.78;;;;;;;;;;5050730;28;20396;-79
2020/12/12 02:53:12;;;;;;;228.73;101.13;;;;;;;;;;5050641;28;20761;-79
2020/12/12 02:55:38;;;;;;;235.23;105.85;;;;;;;;;;5033360;28;20374;-79
2020/12/12 02:58:04;;;;;;;240.50;105.55;;;;;;;;;;5050578;28;20375;-79
2020/12/12 03:00:30;;;;;;;228.77;104.63;;;;;;;;;;5032549;28;20394;-79
2020/12/12 03:02:56;;;;;;;228.23;103.25;;;;;;;;;;5032809;28;20360;-79
2020/12/12 03:05:22;;;;;;;240.82;107.22;;;;;;;;;;5050941;28;20803;-79
2020/12/12 03:07:48;;;;;;;247.68;108.82;;;;;;;;;;5033121;28;20383;-79
2020/12/12 03:10:14;;;;;;;244.53;109.20;;;;;;;;;;5050733;28;20387;-80
2020/12/12 03:12:40;;;;;;;241.20;109.97;;;;;;;;;;5050617;28;20360;-79
2020/12/12 03:15:07;;;;;;;248.50;110.32;;;;;;;;;;5032745;28;20415;-79
2020/12/12 03:17:33;;;;;;;250.77;110.97;;;;;;;;;;5032136;28;20372;-79
2020/12/12 03:19:59;;;;;;;226.18;104.25;;;;;;;;;;5032235;28;20372;-80
2020/12/12 03:22:25;;;;;;;247.13;108.75;;;;;;;;;;5050534;28;20367;-79
2020/12/12 03:24:51;;;;;;;204.77;101.25;;;;;;;;;;5050675;28;20371;-79
2020/12/12 03:27:18;;;;;;;235.13;106.07;;;;;;;;;;5050111;28;20700;-79
2020/12/12 03:29:44;;;;;;;232.68;106.47;;;;;;;;;;5049929;28;20398;-81
2020/12/12 03:32:10;;;;;;;221.88;103.35;;;;;;;;;;5049930;28;20360;-79
2020/12/12 03:34:37;;;;;;;219.43;102.45;;;;;;;;;;5032319;28;20376;-79
2020/12/12 03:37:04;;;;;;;220.35;101.18;;;;;;;;;;5050052;28;20352;-79
2020/12/12 03:39:30;;;;;;;210.15;99.88;;;;;;;;;;5049931;28;20367;-79
2020/12/12 03:41:56;;;;;;;218.35;101.85;;;;;;;;;;5050016;28;20386;-79
2020/12/12 03:44:23;;;;;;;215.13;99.05;;;;;;;;;;5032118;28;20368;-80
2020/12/12 03:46:49;;;;;;;225.77;100.47;;;;;;;;;;5032001;28;21049;-80
2020/12/12 03:49:15;;;;;;;229.20;103.88;;;;;;;;;;5049657;28;20417;-79
2020/12/12 03:51:41;;;;;;;217.57;101.07;;;;;;;;;;5049957;28;20801;-80
2020/12/12 03:54:07;;;;;;;213.55;101.18;;;;;;;;;;5049853;28;20368;-79
2020/12/12 03:56:33;;;;;;;210.70;99.13;;;;;;;;;;5049823;28;20395;-79
2020/12/12 03:58:59;;;;;;;207.35;100.30;;;;;;;;;;5049543;28;20399;-79
2020/12/12 04:01:25;;;;;;;199.18;94.97;;;;;;;;;;5049831;28;20450;-79
2020/12/12 04:03:51;;;;;;;212.23;97.07;;;;;;;;;;5031806;28;20421;-79
2020/12/12 04:06:17;;;;;;;203.88;96.45;;;;;;;;;;5031964;28;20434;-80
2020/12/12 04:08:43;;;;;;;203.23;98.17;;;;;;;;;;5050317;28;20360;-79
2020/12/12 04:11:08;;;;;;;193.30;94.95;;;;;;;;;;5049473;28;20403;-79
2020/12/12 04:13:34;;;;;;;204.68;97.35;;;;;;;;;;5049771;28;20798;-80
2020/12/12 04:16:00;;;;;;;192.38;96.60;;;;;;;;;;5050133;28;20360;-80
2020/12/12 04:18:26;;;;;;;192.00;94.00;;;;;;;;;;5031834;28;20371;-80
2020/12/12 04:20:52;;;;;;;187.98;93.20;;;;;;;;;;5031647;28;20750;-79
2020/12/12 04:23:18;;;;;;;184.55;91.35;;;;;;;;;;5049679;28;20364;-80
2020/12/12 04:25:44;;;;;;;190.82;93.68;;;;;;;;;;5031784;28;20371;-79
2020/12/12 04:28:10;;;;;;;186.75;94.45;;;;;;;;;;5049969;28;20443;-79
2020/12/12 04:30:36;;;;;;;177.80;89.15;;;;;;;;;;5035557;28;20392;-79
2020/12/12 04:33:02;;;;;;;181.65;90.45;;;;;;;;;;5053539;28;20533;-80
2020/12/12 04:35:28;;;;;;;174.95;87.32;;;;;;;;;;5036202;28;20798;-79
2020/12/12 04:37:54;;;;;;;182.52;89.10;;;;;;;;;;5053690;28;20370;-80
2020/12/12 04:40:21;;;;;;;167.80;87.45;;;;;;;;;;5035908;28;20461;-80
2020/12/12 04:42:47;;;;;;;167.57;87.38;;;;;;;;;;5035915;28;20364;-80
2020/12/12 04:45:20;;;;;;;165.35;87.18;;;;;;;;;;5053479;28;20364;-79
2020/12/12 04:47:47;;;;;;;161.27;85.38;;;;;;;;;;5053669;28;20375;-80
2020/12/12 04:50:14;;;;;;;160.73;84.57;;;;;;;;;;5036190;28;20482;-80
2020/12/12 04:52:41;;;;;;;160.63;85.27;;;;;;;;;;5053463;28;20438;-80
2020/12/12 04:55:07;;;;;;;158.80;85.72;;;;;;;;;;5053080;28;20371;-80
2020/12/12 04:57:37;;;;;;;159.02;85.57;;;;;;;;;;5053451;28;20708;-80
2020/12/12 05:00:10;;;;;;;153.27;82.60;;;;;;;;;;5053271;28;20366;-79
2020/12/12 05:02:36;;;;;;;154.52;82.07;;;;;;;;;;5053656;28;20449;-80
2020/12/12 05:05:03;;;;;;;155.68;84.70;;;;;;;;;;5053413;28;20728;-79
2020/12/12 05:07:29;;;;;;;159.70;84.90;;;;;;;;;;5053080;28;20368;-79
2020/12/12 05:09:55;;;;;;;160.95;86.40;;;;;;;;;;5052907;28;20939;-79
2020/12/12 05:12:22;;;;;;;143.75;82.18;;;;;;;;;;5034987;28;20372;-79
2020/12/12 05:14:49;;;;;;;148.00;82.55;;;;;;;;;;5035331;28;20392;-80
2020/12/12 05:17:15;;;;;;;148.82;83.10;;;;;;;;;;5053262;28;20359;-80
2020/12/12 05:19:41;;;;;;;143.38;81.00;;;;;;;;;;5053202;28;20352;-80
2020/12/12 05:22:07;;;;;;;139.93;77.97;;;;;;;;;;5052859;28;20371;-79
2020/12/12 05:24:33;;;;;;;143.17;79.07;;;;;;;;;;5053291;28;20397;-80
2020/12/12 05:27:00;;;;;;;136.27;77.78;;;;;;;;;;5052874;28;20372;-80
2020/12/12 05:29:26;;;;;;;129.43;75.33;;;;;;;;;;5052644;28;20356;-79
2020/12/12 05:31:54;;;;;;;136.82;77.85;;;;;;;;;;5052473;28;20417;-80
2020/12/12 05:34:20;;;;;;;132.45;74.32;;;;;;;;;;5053464;28;20356;-80
2020/12/12 05:36:46;;;;;;;123.97;72.77;;;;;;;;;;5059240;28;20379;-79
2020/12/12 05:39:14;;;;;;;130.23;73.82;;;;;;;;;;5052119;28;20366;-78
2020/12/12 05:41:41;;;;;;;121.40;71.75;;;;;;;;;;5052597;28;20433;-79
2020/12/12 05:44:07;;;;;;;127.72;73.65;;;;;;;;;;5053071;28;20869;-79
2020/12/12 05:46:33;;;;;;;128.05;73.28;;;;;;;;;;5034589;28;20454;-79
2020/12/12 05:49:01;;;;;;;126.75;73.65;;;;;;;;;;5052303;28;20726;-80
2020/12/12 05:51:28;;;;;;;132.30;75.63;;;;;;;;;;5052783;28;20399;-79
2020/12/12 05:53:54;;;;;;;122.38;73.40;;;;;;;;;;5034120;28;20379;-80
2020/12/12 05:56:22;;;;;;;121.03;73.35;;;;;;;;;;5034040;28;20886;-80
2020/12/12 05:58:48;;;;;;;118.60;71.88;;;;;;;;;;5034697;28;20390;-80
2020/12/12 06:01:19;;;;;;;118.95;72.50;;;;;;;;;;5034238;28;20368;-80
2020/12/12 06:04:05;;;;;;;119.30;73.53;;;;;;;;;;5034219;28;20379;-80
2020/12/12 06:06:32;;;;;;;118.95;71.85;;;;;;;;;;5038428;28;20455;-79
2020/12/12 06:09:08;;;;;;;120.50;71.10;;;;;;;;;;5034232;28;20975;-79
2020/12/12 06:11:34;;;;;;;119.73;72.03;;;;;;;;;;5034157;28;20391;-79
2020/12/12 06:14:02;;;;;;;119.82;74.43;;;;;;;;;;5035127;28;20375;-80
2020/12/12 06:16:29;;;;;;;123.28;75.53;;;;;;;;;;5054926;28;20364;-79
2020/12/12 06:19:11;;;;;;;120.57;72.15;;;;;;;;;;5034364;28;20467;-80
2020/12/12 06:21:38;;;;;;;119.20;74.50;;;;;;;;;;5034276;28;20480;-80
2020/12/12 06:24:05;;;;;;;112.63;70.53;;;;;;;;;;5034582;28;20368;-79
2020/12/12 06:26:40;;;;;;;122.15;73.03;;;;;;;;;;5052433;28;20403;-80
2020/12/12 06:29:07;;;;;;;120.17;73.87;;;;;;;;;;5033732;28;20786;-80
2020/12/12 06:31:36;;;;;;;127.75;76.07;;;;;;;;;;5051386;28;20398;-80
2020/12/12 06:34:03;;;;;;;116.28;72.75;;;;;;;;;;5034521;28;20364;-80
2020/12/12 06:36:30;;;;;;;126.70;75.73;;;;;;;;;;5051997;28;20374;-80
2020/12/12 06:39:15;;;;;;;122.68;75.72;;;;;;;;;;5051938;28;20896;-80
2020/12/12 06:41:41;;;;;;;119.15;73.43;;;;;;;;;;5033861;28;20407;-81
2020/12/12 06:44:07;;;;;;;122.70;74.17;;;;;;;;;;5051414;28;20429;-79
2020/12/12 06:46:46;;;;;;;129.05;76.28;;;;;;;;;;5033898;28;20409;-79
2020/12/12 06:49:11;;;;;;;126.05;76.57;;;;;;;;;;5051755;28;20368;-80
2020/12/12 06:51:37;;;;;;;128.60;78.47;;;;;;;;;;5050693;28;20797;-80
2020/12/12 06:54:10;;;;;;;121.05;75.65;;;;;;;;;;5033347;28;20416;-79
2020/12/12 06:56:36;;;;;;;120.80;76.55;;;;;;;;;;5051196;28;20356;-80
2020/12/12 06:59:38;;;;;;;124.50;77.05;;;;;;;;;;5050904;28;20384;-79
2020/12/12 07:02:07;;;;;;;126.70;77.97;;;;;;;;;;4953968;28;20371;-82
2020/12/12 07:04:34;;;;;;;124.35;77.35;;;;;;;;;;5036651;28;20386;-80
2020/12/12 07:07:00;;;;;;;135.23;83.07;;;;;;;;;;5051272;28;20447;-81
2020/12/12 07:09:27;;;;;;;122.73;76.27;;;;;;;;;;5051213;28;20417;-81
2020/12/12 07:11:53;;;;;;;116.90;75.47;;;;;;;;;;5050809;28;20455;-81
2020/12/12 07:14:19;;;;;;;129.80;80.38;;;;;;;;;;5033099;28;20878;-81
2020/12/12 07:16:45;;;;;;;129.20;78.95;;;;;;;;;;5033227;28;20404;-80
2020/12/12 07:19:13;;;;;;;123.55;79.57;;;;;;;;;;5050531;28;20387;-80
2020/12/12 07:21:42;;;;;;;124.28;78.50;;;;;;;;;;5032900;28;20418;-81
2020/12/12 07:24:08;;;;;;;122.22;76.35;;;;;;;;;;5050839;28;20356;-81
2020/12/12 07:26:34;;;;;;;123.60;78.13;;;;;;;;;;5050974;28;20414;-80
2020/12/12 07:29:00;;;;;;;120.57;76.63;;;;;;;;;;5032740;28;20363;-81
2020/12/12 07:31:26;;;;;;;130.60;81.73;;;;;;;;;;5033274;28;20395;-81
2020/12/12 07:33:52;;;;;;;117.10;76.22;;;;;;;;;;5050668;28;20367;-81
2020/12/12 07:36:18;;;;;;;124.40;77.40;;;;;;;;;;5050878;28;20372;-81
2020/12/12 07:38:45;;;;;;;118.28;75.32;;;;;;;;;;5051333;28;20355;-81
2020/12/12 07:41:12;;;;;;;120.00;77.25;;;;;;;;;;5050877;28;20379;-81
2020/12/12 07:43:54;;;;;;;122.07;78.83;;;;;;;;;;5051128;28;20364;-81
2020/12/12 07:46:21;;;;;;;121.47;78.25;;;;;;;;;;5050542;28;21201;-80
2020/12/12 07:48:59;;;;;;;117.78;79.32;;;;;;;;;;5050787;28;20364;-81
2020/12/12 07:51:25;;;;;;;121.13;80.55;;;;;;;;;;5032945;28;21014;-80
2020/12/12 07:53:51;;;;;;;119.03;81.40;;;;;;;;;;5051413;28;20367;-80
2020/12/12 07:56:20;;;;;;;107.85;73.95;;;;;;;;;;5055689;28;20364;-81
2020/12/12 07:58:55;;;;;;;110.10;75.28;;;;;;;;;;5033034;28;20462;-80
2020/12/12 08:01:24;;;;;;;109.65;74.05;;;;;;;;;;5049992;28;20995;-80
2020/12/12 08:03:49;;;;;;;108.68;74.70;;;;;;;;;;5053526;28;20379;-81
2020/12/12 08:06:16;;;;;;;111.78;73.93;;;;;;;;;;5054862;28;20367;-81
2020/12/12 08:08:42;;;;;;;102.65;71.47;;;;;;;;;;5036381;28;20387;-81
2020/12/12 08:11:09;;;;;;;102.20;70.47;;;;;;;;;;5055480;28;20484;-80
2020/12/12 08:13:35;;;;;;;101.50;68.10;;;;;;;;;;5057111;28;20394;-81
2020/12/12 08:16:01;;;;;;;106.30;72.13;;;;;;;;;;5036454;28;20427;-80
2020/12/12 08:18:27;;;;;;;100.28;71.20;;;;;;;;;;5054487;28;20364;-81
2020/12/12 08:20:53;;;;;;;106.72;73.63;;;;;;;;;;5058062;28;20381;-82
2020/12/12 08:23:20;;;;;;;102.28;71.95;;;;;;;;;;5065120;28;20365;-82
2020/12/12 08:25:49;;;;;;;104.95;72.80;;;;;;;;;;5056985;28;20381;-83
2020/12/12 08:28:16;;;;;;;104.68;71.85;;;;;;;;;;5032668;28;20420;-83
2020/12/12 08:30:42;;;;;;;103.18;72.70;;;;;;;;;;5058320;28;20402;-84
2020/12/12 08:33:10;;;;;;;107.45;74.22;;;;;;;;;;5037153;28;20472;-85
2020/12/12 08:35:36;;;;;;;105.65;74.50;;;;;;;;;;5059890;28;20399;-82
2020/12/12 08:38:04;;;;;;;105.93;72.72;;;;;;;;;;5056512;28;20859;-83
2020/12/12 08:40:43;;;;;;;101.72;71.85;;;;;;;;;;5067738;28;20380;-83
2020/12/12 08:43:09;;;;;;;100.50;72.50;;;;;;;;;;5035637;28;20399;-82
2020/12/12 08:46:02;;;;;;;104.30;74.88;;;;;;;;;;5058846;28;20384;-83
2020/12/12 08:48:33;;;;;;;105.75;75.32;;;;;;;;;;5038806;28;20371;-84
2020/12/12 08:50:59;;;;;;;109.90;78.00;;;;;;;;;;5073231;28;20615;-83
2020/12/12 08:53:44;;;;;;;110.90;78.50;;;;;;;;;;5059371;28;20394;-91
2020/12/12 08:56:22;;;;;;;109.00;77.78;;;;;;;;;;5055208;28;20729;-84
2020/12/12 08:58:55;;;;;;;110.45;77.80;;;;;;;;;;5043990;28;20872;-84
2020/12/12 09:01:31;;;;;;;107.13;78.53;;;;;;;;;;5059041;28;20393;-84
2020/12/12 09:03:58;;;;;;;104.88;77.65;;;;;;;;;;5063828;28;20858;-84
2020/12/12 09:06:25;;;;;;;104.57;76.70;;;;;;;;;;5036776;28;20390;-82
2020/12/12 09:09:03;;;;;;;107.63;76.43;;;;;;;;;;5061850;28;20407;-83
2020/12/12 09:11:31;;;;;;;103.80;76.93;;;;;;;;;;5036845;28;20468;-87
2020/12/12 09:13:57;;;;;;;106.53;77.55;;;;;;;;;;5050460;28;20396;-83
2020/12/12 09:16:24;;;;;;;103.07;74.93;;;;;;;;;;5058750;28;20377;-85
2020/12/12 09:18:50;;;;;;;100.75;73.68;;;;;;;;;;5047963;28;20795;-83
2020/12/12 09:21:16;;;;;;;98.25;72.38;;;;;;;;;;5051751;28;20386;-85
2020/12/12 09:23:43;;;;;;;105.85;75.97;;;;;;;;;;5068180;28;20863;-84
2020/12/12 09:26:09;;;;;;;102.25;74.28;;;;;;;;;;5060180;28;20381;-91
2020/12/12 09:28:37;;;;;;;107.20;75.32;;;;;;;;;;5065066;28;20932;-82
2020/12/12 09:31:04;;;;;;;108.35;77.38;;;;;;;;;;5067159;28;20400;-81
2020/12/12 09:33:30;;;;;;;110.63;77.93;;;;;;;;;;5058836;28;20380;-80
2020/12/12 09:35:56;;;;;;;104.82;75.75;;;;;;;;;;5059533;28;20769;-80
2020/12/12 09:38:23;;;;;;;104.80;76.88;;;;;;;;;;5055579;28;20946;-80
2020/12/12 09:40:50;;;;;;;106.87;77.40;;;;;;;;;;5065475;28;20894;-80
2020/12/12 09:43:19;;;;;;;108.57;76.50;;;;;;;;;;5060514;28;20374;-81
2020/12/12 09:45:46;;;;;;;105.00;75.88;;;;;;;;;;5059171;28;20366;-80
2020/12/12 09:48:13;;;;;;;108.55;77.53;;;;;;;;;;5061398;28;20366;-81
2020/12/12 09:50:40;;;;;;;105.57;77.32;;;;;;;;;;5051168;28;20486;-80
2020/12/12 09:53:08;;;;;;;108.50;76.57;;;;;;;;;;5040041;28;20726;-80
2020/12/12 09:55:34;;;;;;;110.15;78.72;;;;;;;;;;5065435;28;20375;-80
2020/12/12 09:58:01;;;;;;;116.65;82.03;;;;;;;;;;5039096;28;20394;-82
2020/12/12 10:00:27;;;;;;;108.72;78.10;;;;;;;;;;5061094;28;20464;-81
2020/12/12 10:02:53;;;;;;;116.32;80.85;;;;;;;;;;5033750;28;20387;-79
2020/12/12 10:05:19;;;;;;;114.20;78.93;;;;;;;;;;5056560;28;20382;-79
2020/12/12 10:07:46;;;;;;;119.90;81.73;;;;;;;;;;5066292;28;20381;-80
2020/12/12 10:10:12;;;;;;;119.93;82.75;;;;;;;;;;5062245;28;20391;-79
2020/12/12 10:12:38;;;;;;;119.90;81.97;;;;;;;;;;5052351;28;20464;-82
2020/12/12 10:15:04;;;;;;;121.63;85.37;;;;;;;;;;5051736;28;20463;-79
2020/12/12 10:17:31;;;;;;;124.70;83.63;;;;;;;;;;5052140;28;20376;-81
2020/12/12 10:19:57;;;;;;;121.95;82.53;;;;;;;;;;5052313;28;20372;-79
2020/12/12 10:22:23;;;;;;;127.40;84.78;;;;;;;;;;5055801;28;20453;-81
2020/12/12 10:24:49;;;;;;;127.45;87.25;;;;;;;;;;5051562;28;20375;-82
2020/12/12 10:27:15;;;;;;;126.97;86.53;;;;;;;;;;5071376;28;21116;-82
2020/12/12 10:29:41;;;;;;;125.78;86.45;;;;;;;;;;5061691;28;20366;-79
2020/12/12 10:32:07;;;;;;;125.67;86.80;;;;;;;;;;5059487;28;20380;-82
2020/12/12 10:34:33;;;;;;;125.93;83.70;;;;;;;;;;5064105;28;20367;-89
2020/12/12 10:36:59;;;;;;;129.35;85.75;;;;;;;;;;5057653;28;20376;-81
2020/12/12 10:40:04;;;;;;;126.90;86.60;;;;;;;;;;5060079;28;20356;-80
2020/12/12 10:42:18;;;;;;;127.50;84.07;;;;;;;;;;5047858;28;20870;-81
2020/12/12 10:44:44;;;;;;;133.23;87.93;;;;;;;;;;5071429;28;20362;-79
2020/12/12 10:47:10;;;;;;;135.27;86.88;;;;;;;;;;5071126;28;20902;-81
2020/12/12 10:49:36;;;;;;;128.32;84.82;;;;;;;;;;5068957;28;20377;-80
2020/12/12 10:52:02;;;;;;;131.25;86.18;;;;;;;;;;5052505;28;20931;-80
2020/12/12 10:54:28;;;;;;;124.72;83.60;;;;;;;;;;5060463;28;20447;-80
2020/12/12 10:56:55;;;;;;;120.35;81.13;;;;;;;;;;5060333;28;20868;-80
2020/12/12 10:59:21;;;;;;;120.47;80.32;;;;;;;;;;5058110;28;20370;-81
2020/12/12 11:01:51;;;;;;;115.72;79.38;;;;;;;;;;5062837;28;20370;-82
2020/12/12 11:04:17;;;;;;;113.63;77.88;;;;;;;;;;5032697;28;20411;-80
2020/12/12 11:06:43;;;;;;;106.95;74.63;;;;;;;;;;5066058;28;20405;-81
2020/12/12 11:09:09;;;;;;;104.10;74.03;;;;;;;;;;5053253;28;20917;-80
2020/12/12 11:11:38;;;;;;;106.13;73.75;;;;;;;;;;5062983;28;20397;-81
2020/12/12 11:14:04;;;;;;;105.55;73.85;;;;;;;;;;5060542;28;20504;-81
2020/12/12 11:16:30;;;;;;;103.47;70.72;;;;;;;;;;5034311;28;20752;-79
2020/12/12 11:18:56;;;;;;;100.73;68.17;;;;;;;;;;5047675;28;20374;-80
2020/12/12 11:21:23;;;;;;;99.40;68.10;;;;;;;;;;5062278;28;20376;-80
2020/12/12 11:23:49;;;;;;;95.22;67.10;;;;;;;;;;5050081;28;20497;-80
2020/12/12 11:26:15;;;;;;;98.72;67.45;;;;;;;;;;5059105;28;20455;-79
2020/12/12 11:28:43;;;;;;;98.22;66.70;;;;;;;;;;5043982;28;20380;-80
2020/12/12 11:31:09;;;;;;;93.22;65.03;;;;;;;;;;5042468;28;20426;-80
2020/12/12 11:33:37;;;;;;;94.15;64.82;;;;;;;;;;5061769;28;20407;-81
2020/12/12 11:39:02;;;;;;;91.43;63.47;;;;;;;;;;5060306;28;20526;-85
2020/12/12 11:44:40;;;;;;;86.95;62.08;;;;;;;;;;5051618;28;20364;-85
2020/12/12 11:46:57;;;;;;;94.13;64.97;;;;;;;;;;5069693;28;20733;-84
2020/12/12 11:49:23;;;;;;;92.43;66.17;;;;;;;;;;5061150;28;20392;-85
2020/12/12 11:51:50;;;;;;;91.47;63.45;;;;;;;;;;5037885;28;20422;-87
2020/12/12 11:54:16;;;;;;;97.30;66.85;;;;;;;;;;5049764;28;20380;-84
2020/12/12 11:56:42;;;;;;;98.30;68.05;;;;;;;;;;5040443;28;20851;-83
2020/12/12 11:59:11;;;;;;;102.03;67.75;;;;;;;;;;5043390;28;20404;-84
2020/12/12 12:01:37;;;;;;;99.28;68.15;;;;;;;;;;5069939;28;20466;-83
2020/12/12 12:04:03;;;;;;;100.75;67.65;;;;;;;;;;5043815;28;20377;-86
2020/12/12 12:06:29;;;;;;;104.72;69.75;;;;;;;;;;5037086;28;20372;-84
2020/12/12 12:11:37;;;;;;;92.07;64.57;;;;;;;;;;5068015;28;20414;-83
2020/12/12 12:14:07;;;;;;;95.07;65.30;;;;;;;;;;5048301;28;21074;-83
2020/12/12 12:16:41;;;;;;;97.88;67.60;;;;;;;;;;5046728;28;20367;-84
2020/12/12 12:19:11;;;;;;;97.03;66.43;;;;;;;;;;5065485;28;20688;-83
2020/12/12 12:21:42;;;;;;;100.65;68.35;;;;;;;;;;5065022;28;20373;-85
2020/12/12 12:24:09;;;;;;;94.25;64.68;;;;;;;;;;5063600;28;20368;-84
2020/12/12 12:26:41;;;;;;;97.07;64.57;;;;;;;;;;5040397;28;20383;-85
2020/12/12 12:29:07;;;;;;;90.27;62.03;;;;;;;;;;5054584;28;20401;-84
2020/12/12 12:31:34;;;;;;;94.47;63.03;;;;;;;;;;5048243;28;20408;-85
2020/12/12 12:34:00;;;;;;;91.97;63.55;;;;;;;;;;5060434;28;20376;-85
2020/12/12 12:36:27;;;;;;;91.15;61.60;;;;;;;;;;5061205;28;20705;-86
2020/12/12 12:38:54;;;;;;;92.15;63.13;;;;;;;;;;5060775;28;20843;-84
2020/12/12 12:41:20;;;;;;;96.80;64.97;;;;;;;;;;5059354;28;20371;-83
2020/12/12 12:43:51;;;;;;;97.70;65.95;;;;;;;;;;5056880;28;20378;-86
2020/12/12 12:46:17;;;;;;;93.80;63.50;;;;;;;;;;5059855;28;20356;-84
2020/12/12 12:48:43;;;;;;;91.23;62.70;;;;;;;;;;5039613;28;20367;-83
2020/12/12 12:51:09;;;;;;;89.55;60.65;;;;;;;;;;5054844;28;20893;-83
2020/12/12 12:53:35;;;;;;;88.10;61.88;;;;;;;;;;5040761;28;20430;-85
2020/12/12 12:56:01;;;;;;;97.47;65.50;;;;;;;;;;5038422;28;20382;-85
2020/12/12 12:58:27;;;;;;;102.63;72.03;;;;;;;;;;5071143;28;20402;-84
2020/12/12 13:00:55;;;;;;;108.30;74.10;;;;;;;;;;5047409;28;20714;-84
2020/12/12 13:03:21;;;;;;;112.97;78.82;;;;;;;;;;5041157;28;20368;-84
2020/12/12 13:05:48;;;;;;;115.57;82.63;;;;;;;;;;5042920;28;20868;-83
2020/12/12 13:08:14;;;;;;;134.45;100.40;;;;;;;;;;5043876;28;20414;-85
2020/12/12 13:10:40;;;;;;;110.25;77.07;;;;;;;;;;5056714;28;20491;-84
2020/12/12 13:13:07;;;;;;;133.00;90.63;;;;;;;;;;5036722;28;20791;-83
2020/12/12 13:15:33;;;;;;;142.00;96.00;;;;;;;;;;5036597;28;20379;-85
2020/12/12 13:18:04;;;;;;;178.13;134.52;;;;;;;;;;5042869;28;20459;-85
2020/12/12 13:20:59;;;;;;;160.53;116.13;;;;;;;;;;5060202;28;20959;-84
2020/12/12 13:23:16;;;;;;;133.55;88.55;;;;;;;;;;5063486;28;20411;-85
2020/12/12 13:25:42;;;;;;;117.25;74.80;;;;;;;;;;5059658;28;20359;-85
2020/12/12 13:31:08;;;;;;;119.07;75.20;;;;;;;;;;5056433;28;20393;-84
2020/12/12 13:33:35;;;;;;;121.57;75.13;;;;;;;;;;5036081;28;20455;-85
2020/12/12 13:36:05;;;;;;;128.85;77.15;;;;;;;;;;5055375;28;20367;-83
2020/12/12 13:38:31;;;;;;;127.18;81.63;;;;;;;;;;5038476;28;20846;-85
2020/12/12 13:41:01;;;;;;;142.30;96.07;;;;;;;;;;5053766;28;20450;-84
2020/12/12 13:43:27;;;;;;;197.73;148.23;;;;;;;;;;5038932;28;20368;-84
2020/12/12 13:45:53;;;;;;;158.68;115.60;;;;;;;;;;5035815;28;20372;-83
2020/12/12 13:48:19;;;;;;;259.57;209.27;;;;;;;;;;5037218;28;20364;-81
2020/12/12 13:50:46;;;;;;;160.23;112.15;;;;;;;;;;5035110;28;20713;-82
2020/12/12 13:53:12;;;;;;;190.23;134.48;;;;;;;;;;5062804;28;21244;-82
2020/12/12 13:55:38;;;;;;;125.73;77.70;;;;;;;;;;5052415;28;20363;-81
2020/12/12 13:58:04;;;;;;;165.85;116.22;;;;;;;;;;5064461;28;20386;-80
2020/12/12 14:00:31;;;;;;;154.50;104.97;;;;;;;;;;5040841;28;20418;-82
2020/12/12 14:02:57;;;;;;;127.82;80.53;;;;;;;;;;5035709;28;20363;-81
2020/12/12 14:05:25;;;;;;;128.85;81.30;;;;;;;;;;5058606;28;20378;-81
2020/12/12 14:07:55;;;;;;;123.85;74.70;;;;;;;;;;5054616;28;20405;-83
2020/12/12 14:24:22;;;;;;;124.47;75.63;;;;;;;;;;5058784;28;20368;-84
2020/12/12 14:29:36;;;;;;;122.20;74.38;;;;;;;;;;5059754;28;20449;-87
2020/12/12 14:32:06;;;;;;;118.18;72.13;;;;;;;;;;5046007;28;20402;-84
2020/12/12 14:34:35;;;;;;;111.30;68.10;;;;;;;;;;5064958;28;20377;-83